Decoded Metar for KHBI (ASHEBORO MUNI in NC, USA) (IATA:HBI) | Meteo·Mobile Aviation Weather
aviador You're here:

KHBI Decoded Metar

ASHEBORO MUNI in NC, USA
Report Time2019-07-16 09:45:00
UTC Time2019-07-16 10:01:57
Flight Rules vfr VFR
WindCalm
Visibility9999 m
Phenomena:N/A
Clouds:N/A
CeilingNone
Temp22°C (ISA +8)
Dew Point22°C (100% RH)
QNH1020 hPa
Density Alt1,759 ft
Elevation673 ft
Report Wrong Elevation
Raw Report
METAR KHBI 160945Z AUTO 00000KT 10SM CLR 22/22 A3013 RMK AO2 T02230216=

Extra information for KHBI:More info

Metar Taf Metar & Taf Last 4 Metars F.Rules Stats Wind Profile Meteogram Temp Stats Airport Information Weather charts Add Link Nearby VenuesMetar ALERT Operation Metar Decoded Social comments

AIRNAV info for KHBI